sensor_id;sensor_type;location;lat;lon;timestamp;pressure;altitude;pressure_sealevel;temperature;humidity
64876;BME280;51369;49.862;9.908;2022-09-30T00:02:07;97499.38;;;6.22;83.19
64876;BME280;51369;49.862;9.908;2022-09-30T00:04:34;97495.81;;;6.21;83.46
64876;BME280;51369;49.862;9.908;2022-09-30T00:06:59;97496.63;;;6.23;83.99
64876;BME280;51369;49.862;9.908;2022-09-30T00:09:25;97509.84;;;6.28;85.13
64876;BME280;51369;49.862;9.908;2022-09-30T00:11:50;97509.69;;;6.32;85.04
64876;BME280;51369;49.862;9.908;2022-09-30T00:14:18;97512.28;;;6.34;85.70
64876;BME280;51369;49.862;9.908;2022-09-30T00:16:45;97504.25;;;6.34;85.32
64876;BME280;51369;49.862;9.908;2022-09-30T00:19:11;97509.56;;;6.35;85.04
64876;BME280;51369;49.862;9.908;2022-09-30T00:21:36;97513.16;;;6.34;84.85
64876;BME280;51369;49.862;9.908;2022-09-30T00:24:04;97508.88;;;6.30;84.27
64876;BME280;51369;49.862;9.908;2022-09-30T00:26:30;97514.41;;;6.26;83.42
64876;BME280;51369;49.862;9.908;2022-09-30T00:28:57;97516.41;;;6.20;83.26
64876;BME280;51369;49.862;9.908;2022-09-30T00:31:27;97526.28;;;6.18;83.39
64876;BME280;51369;49.862;9.908;2022-09-30T00:33:52;97532.66;;;6.16;83.64
64876;BME280;51369;49.862;9.908;2022-09-30T00:36:45;97535.44;;;6.13;83.31
64876;BME280;51369;49.862;9.908;2022-09-30T00:39:14;97531.19;;;6.07;83.06
64876;BME280;51369;49.862;9.908;2022-09-30T00:41:41;97522.53;;;6.01;82.49
64876;BME280;51369;49.862;9.908;2022-09-30T00:44:45;97531.66;;;5.95;83.36
64876;BME280;51369;49.862;9.908;2022-09-30T00:47:39;97538.94;;;5.92;82.81
64876;BME280;51369;49.862;9.908;2022-09-30T00:53:09;97541.13;;;5.80;83.23
64876;BME280;51369;49.862;9.908;2022-09-30T00:55:47;97541.34;;;5.74;83.74
64876;BME280;51369;49.862;9.908;2022-09-30T00:58:19;97544.94;;;5.73;83.88
64876;BME280;51369;49.862;9.908;2022-09-30T01:00:46;97548.56;;;5.72;84.43
64876;BME280;51369;49.862;9.908;2022-09-30T01:03:12;97543.31;;;5.69;83.68
64876;BME280;51369;49.862;9.908;2022-09-30T01:05:38;97552.28;;;5.68;84.61
64876;BME280;51369;49.862;9.908;2022-09-30T01:08:05;97552.28;;;5.68;84.17
64876;BME280;51369;49.862;9.908;2022-09-30T01:10:32;97548.72;;;5.68;84.38
64876;BME280;51369;49.862;9.908;2022-09-30T01:12:58;97544.28;;;5.67;84.25
64876;BME280;51369;49.862;9.908;2022-09-30T01:15:42;97553.25;;;5.66;84.32
64876;BME280;51369;49.862;9.908;2022-09-30T01:18:35;97556.88;;;5.65;85.10
64876;BME280;51369;49.862;9.908;2022-09-30T01:24:15;97542.81;;;5.58;84.70
64876;BME280;51369;49.862;9.908;2022-09-30T01:27:04;97536.66;;;5.56;85.07
64876;BME280;51369;49.862;9.908;2022-09-30T01:37:40;97547.47;;;5.53;84.83
64876;BME280;51369;49.862;9.908;2022-09-30T01:40:24;97550.22;;;5.51;84.18
64876;BME280;51369;49.862;9.908;2022-09-30T01:43:02;97553.88;;;5.49;84.49
64876;BME280;51369;49.862;9.908;2022-09-30T01:50:57;97554.06;;;5.43;83.88
64876;BME280;51369;49.862;9.908;2022-09-30T01:53:39;97550.69;;;5.38;83.40
64876;BME280;51369;49.862;9.908;2022-09-30T01:56:21;97552.53;;;5.36;83.96
64876;BME280;51369;49.862;9.908;2022-09-30T01:58:55;97552.59;;;5.34;83.49
64876;BME280;51369;49.862;9.908;2022-09-30T02:01:34;97558.06;;;5.31;83.95
64876;BME280;51369;49.862;9.908;2022-09-30T02:04:10;97553.63;;;5.30;83.17
64876;BME280;51369;49.862;9.908;2022-09-30T02:06:40;97559.03;;;5.29;83.54
64876;BME280;51369;49.862;9.908;2022-09-30T02:09:14;97560.91;;;5.27;83.50
64876;BME280;51369;49.862;9.908;2022-09-30T02:11:41;97561.81;;;5.26;84.02
64876;BME280;51369;49.862;9.908;2022-09-30T02:14:15;97558.31;;;5.23;83.52
64876;BME280;51369;49.862;9.908;2022-09-30T02:16:52;97561.06;;;5.22;84.22
64876;BME280;51369;49.862;9.908;2022-09-30T02:19:32;97562.84;;;5.21;84.24
64876;BME280;51369;49.862;9.908;2022-09-30T02:22:31;97563.78;;;5.20;84.68
64876;BME280;51369;49.862;9.908;2022-09-30T02:25:06;97576.19;;;5.23;84.62
64876;BME280;51369;49.862;9.908;2022-09-30T02:27:36;97584.16;;;5.24;84.05
64876;BME280;51369;49.862;9.908;2022-09-30T02:30:07;97580.63;;;5.24;84.28
64876;BME280;51369;49.862;9.908;2022-09-30T02:32:38;97580.66;;;5.22;84.00
64876;BME280;51369;49.862;9.908;2022-09-30T02:35:09;97578.03;;;5.21;83.32
64876;BME280;51369;49.862;9.908;2022-09-30T02:37:52;97586.06;;;5.21;83.85
64876;BME280;51369;49.862;9.908;2022-09-30T02:42:45;97587.72;;;5.25;84.36
64876;BME280;51369;49.862;9.908;2022-09-30T02:45:13;97590.38;;;5.25;84.10
64876;BME280;51369;49.862;9.908;2022-09-30T02:50:48;97598.47;;;5.23;84.25
64876;BME280;51369;49.862;9.908;2022-09-30T02:53:21;97591.25;;;5.26;83.26
64876;BME280;51369;49.862;9.908;2022-09-30T02:58:32;97595.84;;;5.22;83.09
64876;BME280;51369;49.862;9.908;2022-09-30T03:01:00;97600.47;;;5.18;83.30
64876;BME280;51369;49.862;9.908;2022-09-30T03:03:29;97605.84;;;5.17;83.24
64876;BME280;51369;49.862;9.908;2022-09-30T03:05:57;97609.50;;;5.14;82.88
64876;BME280;51369;49.862;9.908;2022-09-30T03:08:22;97614.00;;;5.14;82.87
64876;BME280;51369;49.862;9.908;2022-09-30T03:10:49;97617.63;;;5.11;83.16
64876;BME280;51369;49.862;9.908;2022-09-30T03:13:41;97619.53;;;5.08;83.54
64876;BME280;51369;49.862;9.908;2022-09-30T03:30:06;97620.66;;;5.01;82.68
64876;BME280;51369;49.862;9.908;2022-09-30T03:35:46;97625.28;;;4.96;83.62
64876;BME280;51369;49.862;9.908;2022-09-30T03:41:42;97641.25;;;4.99;83.67
64876;BME280;51369;49.862;9.908;2022-09-30T03:44:27;97637.69;;;4.98;84.12
64876;BME280;51369;49.862;9.908;2022-09-30T03:46:59;97643.03;;;4.98;83.94
64876;BME280;51369;49.862;9.908;2022-09-30T03:49:45;97641.28;;;4.97;84.66
64876;BME280;51369;49.862;9.908;2022-09-30T03:52:13;97654.66;;;4.97;83.63
64876;BME280;51369;49.862;9.908;2022-09-30T03:54:47;97652.13;;;4.93;83.44
64876;BME280;51369;49.862;9.908;2022-09-30T03:57:13;97657.53;;;4.91;83.65
64876;BME280;51369;49.862;9.908;2022-09-30T03:59:39;97654.09;;;4.87;84.19
64876;BME280;51369;49.862;9.908;2022-09-30T04:02:04;97653.25;;;4.85;84.05
64876;BME280;51369;49.862;9.908;2022-09-30T04:04:31;97661.31;;;4.84;84.28
64876;BME280;51369;49.862;9.908;2022-09-30T04:06:56;97656.13;;;4.79;84.10
64876;BME280;51369;49.862;9.908;2022-09-30T04:09:22;97657.13;;;4.75;83.99
64876;BME280;51369;49.862;9.908;2022-09-30T04:11:47;97658.09;;;4.73;83.34
64876;BME280;51369;49.862;9.908;2022-09-30T04:14:13;97656.34;;;4.72;84.31
64876;BME280;51369;49.862;9.908;2022-09-30T04:16:38;97652.84;;;4.70;84.72
64876;BME280;51369;49.862;9.908;2022-09-30T04:19:03;97652.94;;;4.67;84.15
64876;BME280;51369;49.862;9.908;2022-09-30T04:21:29;97652.13;;;4.65;84.51
64876;BME280;51369;49.862;9.908;2022-09-30T04:23:55;97654.75;;;4.66;84.42
64876;BME280;51369;49.862;9.908;2022-09-30T04:26:20;97658.25;;;4.68;85.04
64876;BME280;51369;49.862;9.908;2022-09-30T04:28:47;97662.63;;;4.71;85.08
64876;BME280;51369;49.862;9.908;2022-09-30T04:31:13;97657.28;;;4.71;85.18
64876;BME280;51369;49.862;9.908;2022-09-30T04:33:39;97662.63;;;4.71;84.58
64876;BME280;51369;49.862;9.908;2022-09-30T04:36:06;97657.38;;;4.68;83.47
64876;BME280;51369;49.862;9.908;2022-09-30T04:38:32;97668.16;;;4.65;83.63
64876;BME280;51369;49.862;9.908;2022-09-30T04:41:00;97660.38;;;4.57;83.90
64876;BME280;51369;49.862;9.908;2022-09-30T04:43:26;97674.66;;;4.56;83.45
64876;BME280;51369;49.862;9.908;2022-09-30T04:45:52;97672.03;;;4.54;83.44
64876;BME280;51369;49.862;9.908;2022-09-30T04:48:18;97672.09;;;4.53;83.34
64876;BME280;51369;49.862;9.908;2022-09-30T04:50:43;97672.19;;;4.50;83.20
64876;BME280;51369;49.862;9.908;2022-09-30T04:53:11;97674.91;;;4.48;83.35
64876;BME280;51369;49.862;9.908;2022-09-30T04:55:39;97675.84;;;4.46;84.29
64876;BME280;51369;49.862;9.908;2022-09-30T04:58:04;97687.56;;;4.42;83.27
64876;BME280;51369;49.862;9.908;2022-09-30T05:00:30;97687.59;;;4.40;84.64
64876;BME280;51369;49.862;9.908;2022-09-30T05:02:55;97685.03;;;4.37;83.88
64876;BME280;51369;49.862;9.908;2022-09-30T05:05:22;97689.53;;;4.35;83.61
64876;BME280;51369;49.862;9.908;2022-09-30T05:07:47;97681.59;;;4.32;83.11
64876;BME280;51369;49.862;9.908;2022-09-30T05:10:13;97690.53;;;4.31;83.81
64876;BME280;51369;49.862;9.908;2022-09-30T05:12:39;97696.03;;;4.27;83.58
64876;BME280;51369;49.862;9.908;2022-09-30T05:15:05;97696.06;;;4.25;83.72
64876;BME280;51369;49.862;9.908;2022-09-30T05:17:31;97710.44;;;4.21;83.55
64876;BME280;51369;49.862;9.908;2022-09-30T05:19:57;97714.06;;;4.18;84.19
64876;BME280;51369;49.862;9.908;2022-09-30T05:22:22;97726.53;;;4.18;83.56
64876;BME280;51369;49.862;9.908;2022-09-30T05:24:50;97724.75;;;4.18;84.60
64876;BME280;51369;49.862;9.908;2022-09-30T05:27:17;97728.34;;;4.17;84.13
64876;BME280;51369;49.862;9.908;2022-09-30T05:29:43;97725.66;;;4.17;84.86
64876;BME280;51369;49.862;9.908;2022-09-30T05:32:09;97738.19;;;4.15;83.85
64876;BME280;51369;49.862;9.908;2022-09-30T05:34:34;97734.69;;;4.13;84.25
64876;BME280;51369;49.862;9.908;2022-09-30T05:37:01;97720.53;;;4.10;84.23
64876;BME280;51369;49.862;9.908;2022-09-30T05:39:26;97726.84;;;4.07;84.88
64876;BME280;51369;49.862;9.908;2022-09-30T05:41:52;97727.75;;;4.06;84.67
64876;BME280;51369;49.862;9.908;2022-09-30T05:44:17;97731.31;;;4.07;85.62
64876;BME280;51369;49.862;9.908;2022-09-30T05:46:43;97736.59;;;4.08;84.79
64876;BME280;51369;49.862;9.908;2022-09-30T05:49:08;97730.34;;;4.09;85.36
64876;BME280;51369;49.862;9.908;2022-09-30T05:51:34;97739.19;;;4.11;85.60
64876;BME280;51369;49.862;9.908;2022-09-30T05:54:01;97739.09;;;4.14;85.83
64876;BME280;51369;49.862;9.908;2022-09-30T05:56:26;97741.69;;;4.17;86.23
64876;BME280;51369;49.862;9.908;2022-09-30T05:58:52;97748.63;;;4.24;87.22
64876;BME280;51369;49.862;9.908;2022-09-30T06:01:17;97746.66;;;4.31;87.29
64876;BME280;51369;49.862;9.908;2022-09-30T06:03:43;97747.41;;;4.36;86.50
64876;BME280;51369;49.862;9.908;2022-09-30T06:06:10;97743.72;;;4.40;86.55
64876;BME280;51369;49.862;9.908;2022-09-30T06:08:35;97747.16;;;4.45;86.97
64876;BME280;51369;49.862;9.908;2022-09-30T06:11:07;97746.13;;;4.49;86.36
64876;BME280;51369;49.862;9.908;2022-09-30T06:13:36;97758.53;;;4.52;87.07
64876;BME280;51369;49.862;9.908;2022-09-30T06:16:02;97762.88;;;4.56;86.93
64876;BME280;51369;49.862;9.908;2022-09-30T06:18:28;97755.66;;;4.60;86.06
64876;BME280;51369;49.862;9.908;2022-09-30T06:20:56;97759.06;;;4.65;87.08
64876;BME280;51369;49.862;9.908;2022-09-30T06:23:22;97762.47;;;4.70;86.88
64876;BME280;51369;49.862;9.908;2022-09-30T06:25:52;97765.91;;;4.75;85.93
64876;BME280;51369;49.862;9.908;2022-09-30T06:28:19;97776.47;;;4.79;85.94
64876;BME280;51369;49.862;9.908;2022-09-30T06:30:45;97776.31;;;4.84;86.26
64876;BME280;51369;49.862;9.908;2022-09-30T06:33:12;97785.09;;;4.89;86.05
64876;BME280;51369;49.862;9.908;2022-09-30T06:35:38;97774.25;;;4.94;85.91
64876;BME280;51369;49.862;9.908;2022-09-30T06:38:10;97790.16;;;4.98;86.02
64876;BME280;51369;49.862;9.908;2022-09-30T06:40:36;97784.69;;;5.03;86.20
64876;BME280;51369;49.862;9.908;2022-09-30T06:43:03;97790.81;;;5.06;85.71
64876;BME280;51369;49.862;9.908;2022-09-30T06:45:29;97792.44;;;5.12;86.59
64876;BME280;51369;49.862;9.908;2022-09-30T06:48:02;97795.88;;;5.15;86.88
64876;BME280;51369;49.862;9.908;2022-09-30T06:50:29;97803.69;;;5.21;85.98
64876;BME280;51369;49.862;9.908;2022-09-30T06:52:59;97807.13;;;5.27;86.46
64876;BME280;51369;49.862;9.908;2022-09-30T06:55:26;97806.81;;;5.36;86.98
64876;BME280;51369;49.862;9.908;2022-09-30T06:57:52;97811.94;;;5.43;86.02
64876;BME280;51369;49.862;9.908;2022-09-30T07:00:18;97825.09;;;5.51;86.93
64876;BME280;51369;49.862;9.908;2022-09-30T07:02:43;97823.09;;;5.57;86.17
64876;BME280;51369;49.862;9.908;2022-09-30T07:05:09;97823.78;;;5.64;86.20
64876;BME280;51369;49.862;9.908;2022-09-30T07:07:35;97824.47;;;5.71;87.27
64876;BME280;51369;49.862;9.908;2022-09-30T07:10:02;97825.03;;;5.80;87.00
64876;BME280;51369;49.862;9.908;2022-09-30T07:12:27;97827.44;;;5.90;87.31
64876;BME280;51369;49.862;9.908;2022-09-30T07:14:53;97829.81;;;5.99;87.40
64876;BME280;51369;49.862;9.908;2022-09-30T07:17:20;97836.69;;;6.07;87.51
64876;BME280;51369;49.862;9.908;2022-09-30T07:19:45;97836.31;;;6.18;87.74
64876;BME280;51369;49.862;9.908;2022-09-30T07:22:10;97827.97;;;6.27;87.96
64876;BME280;51369;49.862;9.908;2022-09-30T07:25:03;97830.19;;;6.41;88.26
64876;BME280;51369;49.862;9.908;2022-09-30T07:27:31;97826.25;;;6.51;88.21
64876;BME280;51369;49.862;9.908;2022-09-30T07:29:57;97820.59;;;6.59;87.77
64876;BME280;51369;49.862;9.908;2022-09-30T07:32:23;97824.81;;;6.66;87.51
64876;BME280;51369;49.862;9.908;2022-09-30T07:34:49;97821.91;;;6.72;87.78
64876;BME280;51369;49.862;9.908;2022-09-30T07:37:17;97827.06;;;6.78;87.59
64876;BME280;51369;49.862;9.908;2022-09-30T07:39:46;97830.34;;;6.86;87.58
64876;BME280;51369;49.862;9.908;2022-09-30T07:42:13;97844.22;;;6.97;87.87
64876;BME280;51369;49.862;9.908;2022-09-30T07:44:39;97840.19;;;7.09;88.37
64876;BME280;51369;49.862;9.908;2022-09-30T07:47:09;97841.59;;;7.19;88.54
64876;BME280;51369;49.862;9.908;2022-09-30T07:49:34;97844.81;;;7.29;88.47
64876;BME280;51369;49.862;9.908;2022-09-30T07:52:00;97848.03;;;7.38;88.80
64876;BME280;51369;49.862;9.908;2022-09-30T07:54:31;97852.94;;;7.50;89.38
64876;BME280;51369;49.862;9.908;2022-09-30T07:56:58;97864.13;;;7.62;89.03
64876;BME280;51369;49.862;9.908;2022-09-30T07:59:25;97870.09;;;7.70;89.11
64876;BME280;51369;49.862;9.908;2022-09-30T08:01:51;97863.41;;;7.80;88.67
64876;BME280;51369;49.862;9.908;2022-09-30T08:04:18;97864.09;;;7.85;89.07
64876;BME280;51369;49.862;9.908;2022-09-30T08:06:50;97870.91;;;7.94;88.61
64876;BME280;51369;49.862;9.908;2022-09-30T08:09:18;97874.06;;;8.05;88.23
64876;BME280;51369;49.862;9.908;2022-09-30T08:11:45;97875.44;;;8.15;88.34
64876;BME280;51369;49.862;9.908;2022-09-30T08:14:23;97884.06;;;8.23;88.20
64876;BME280;51369;49.862;9.908;2022-09-30T08:16:49;97880.03;;;8.35;88.61
64876;BME280;51369;49.862;9.908;2022-09-30T08:19:17;97881.31;;;8.46;88.33
64876;BME280;51369;49.862;9.908;2022-09-30T08:21:43;97885.38;;;8.57;88.04
64876;BME280;51369;49.862;9.908;2022-09-30T08:24:09;97880.38;;;8.68;88.27
64876;BME280;51369;49.862;9.908;2022-09-30T08:26:36;97894.25;;;8.79;87.75
64876;BME280;51369;49.862;9.908;2022-09-30T08:29:02;97893.84;;;8.88;87.59
64876;BME280;51369;49.862;9.908;2022-09-30T08:31:27;97899.78;;;8.96;87.09
64876;BME280;51369;49.862;9.908;2022-09-30T08:33:54;97893.97;;;9.05;87.21
64876;BME280;51369;49.862;9.908;2022-09-30T08:36:22;97890.00;;;9.14;87.02
64876;BME280;51369;49.862;9.908;2022-09-30T08:38:48;97886.84;;;9.25;86.46
64876;BME280;51369;49.862;9.908;2022-09-30T08:41:32;97884.66;;;9.33;86.66
64876;BME280;51369;49.862;9.908;2022-09-30T08:51:36;97923.53;;;9.66;84.90
64876;BME280;51369;49.862;9.908;2022-09-30T08:54:06;97919.47;;;9.76;84.67
64876;BME280;51369;49.862;9.908;2022-09-30T08:56:35;97919.31;;;9.79;84.88
64876;BME280;51369;49.862;9.908;2022-09-30T08:59:21;97935.28;;;9.84;84.47
64876;BME280;51369;49.862;9.908;2022-09-30T09:01:59;97932.31;;;9.90;83.89
64876;BME280;51369;49.862;9.908;2022-09-30T09:04:26;97941.13;;;9.94;84.20
64876;BME280;51369;49.862;9.908;2022-09-30T09:07:01;97940.97;;;9.97;83.07
64876;BME280;51369;49.862;9.908;2022-09-30T09:12:31;97931.88;;;9.99;82.26
64876;BME280;51369;49.862;9.908;2022-09-30T09:15:12;97941.50;;;10.05;81.38
64876;BME280;51369;49.862;9.908;2022-09-30T09:18:01;97943.25;;;10.06;81.47
64876;BME280;51369;49.862;9.908;2022-09-30T09:20:36;97954.69;;;10.11;81.46
64876;BME280;51369;49.862;9.908;2022-09-30T09:23:09;97953.81;;;10.10;80.96
64876;BME280;51369;49.862;9.908;2022-09-30T09:25:35;97955.41;;;10.15;81.26
64876;BME280;51369;49.862;9.908;2022-09-30T09:28:13;97957.09;;;10.17;80.78
64876;BME280;51369;49.862;9.908;2022-09-30T09:30:48;97957.91;;;10.19;81.39
64876;BME280;51369;49.862;9.908;2022-09-30T09:33:19;97951.38;;;10.25;81.62
64876;BME280;51369;49.862;9.908;2022-09-30T09:38:40;97950.38;;;10.44;81.64
64876;BME280;51369;49.862;9.908;2022-09-30T09:46:44;97943.28;;;10.78;81.66
64876;BME280;51369;49.862;9.908;2022-09-30T09:51:55;97942.53;;;10.93;80.83
64876;BME280;51369;49.862;9.908;2022-09-30T09:54:28;97936.00;;;10.97;80.26
64876;BME280;51369;49.862;9.908;2022-09-30T09:56:54;97932.44;;;10.97;79.90
64876;BME280;51369;49.862;9.908;2022-09-30T09:59:19;97928.78;;;10.98;80.62
64876;BME280;51369;49.862;9.908;2022-09-30T10:01:52;97935.69;;;11.03;81.06
64876;BME280;51369;49.862;9.908;2022-09-30T10:04:27;97931.72;;;11.11;81.15
64876;BME280;51369;49.862;9.908;2022-09-30T10:07:11;97924.66;;;11.25;81.22
64876;BME280;51369;49.862;9.908;2022-09-30T10:09:39;97931.22;;;11.37;81.83
64876;BME280;51369;49.862;9.908;2022-09-30T10:14:36;97918.44;;;11.40;79.62
64876;BME280;51369;49.862;9.908;2022-09-30T10:17:17;97917.47;;;11.41;79.08
64876;BME280;51369;49.862;9.908;2022-09-30T10:19:49;97913.81;;;11.43;79.12
64876;BME280;51369;49.862;9.908;2022-09-30T10:22:18;97902.91;;;11.44;79.13
64876;BME280;51369;49.862;9.908;2022-09-30T10:24:44;97902.59;;;11.50;79.05
64876;BME280;51369;49.862;9.908;2022-09-30T10:27:30;97893.97;;;11.59;78.92
64876;BME280;51369;49.862;9.908;2022-09-30T10:29:56;97897.84;;;11.71;78.96
64876;BME280;51369;49.862;9.908;2022-09-30T10:32:21;97897.28;;;11.82;78.25
64876;BME280;51369;49.862;9.908;2022-09-30T10:34:55;97888.59;;;11.92;77.48
64876;BME280;51369;49.862;9.908;2022-09-30T10:37:23;97896.78;;;12.07;76.97
64876;BME280;51369;49.862;9.908;2022-09-30T10:40:15;97891.00;;;12.28;78.74
64876;BME280;51369;49.862;9.908;2022-09-30T10:42:45;97889.69;;;12.51;76.98
64876;BME280;51369;49.862;9.908;2022-09-30T10:45:21;97888.34;;;12.74;76.75
64876;BME280;51369;49.862;9.908;2022-09-30T10:47:50;97877.28;;;12.93;74.57
64876;BME280;51369;49.862;9.908;2022-09-30T10:50:22;97880.53;;;13.14;75.60
64876;BME280;51369;49.862;9.908;2022-09-30T10:57:48;97896.03;;;13.70;73.33
64876;BME280;51369;49.862;9.908;2022-09-30T11:00:17;97895.41;;;13.93;73.04
64876;BME280;51369;49.862;9.908;2022-09-30T11:07:49;97892.75;;;14.49;68.64
64876;BME280;51369;49.862;9.908;2022-09-30T11:10:26;97898.13;;;14.63;67.28
64876;BME280;51369;49.862;9.908;2022-09-30T11:13:00;97898.66;;;14.82;67.22
64876;BME280;51369;49.862;9.908;2022-09-30T11:15:32;97894.69;;;15.01;65.72
64876;BME280;51369;49.862;9.908;2022-09-30T11:18:12;97894.41;;;15.18;65.96
64876;BME280;51369;49.862;9.908;2022-09-30T11:20:49;97889.63;;;15.34;64.28
64876;BME280;51369;49.862;9.908;2022-09-30T11:23:29;97893.78;;;15.52;64.74
64876;BME280;51369;49.862;9.908;2022-09-30T11:26:16;97897.06;;;15.70;63.61
64876;BME280;51369;49.862;9.908;2022-09-30T11:42:44;97891.84;;;16.78;61.48
64876;BME280;51369;49.862;9.908;2022-09-30T11:45:20;97893.41;;;16.94;59.24
64876;BME280;51369;49.862;9.908;2022-09-30T11:54:01;97889.06;;;17.15;56.42
64876;BME280;51369;49.862;9.908;2022-09-30T11:57:00;97889.09;;;17.26;57.29
64876;BME280;51369;49.862;9.908;2022-09-30T11:59:37;97890.72;;;17.40;57.22
64876;BME280;51369;49.862;9.908;2022-09-30T12:02:53;97884.53;;;17.49;54.53
64876;BME280;51369;49.862;9.908;2022-09-30T12:08:09;97885.72;;;17.69;54.55
64876;BME280;51369;49.862;9.908;2022-09-30T12:10:42;97890.22;;;17.81;55.72
64876;BME280;51369;49.862;9.908;2022-09-30T12:13:12;97895.56;;;17.94;56.10
64876;BME280;51369;49.862;9.908;2022-09-30T12:15:41;97903.66;;;18.06;55.23
64876;BME280;51369;49.862;9.908;2022-09-30T12:18:12;97900.91;;;18.17;54.93
64876;BME280;51369;49.862;9.908;2022-09-30T12:20:54;97895.44;;;18.29;54.33
64876;BME280;51369;49.862;9.908;2022-09-30T12:23:31;97899.31;;;18.37;54.18
64876;BME280;51369;49.862;9.908;2022-09-30T12:26:01;97907.38;;;18.50;54.10
64876;BME280;51369;49.862;9.908;2022-09-30T12:29:02;97906.00;;;18.56;53.37
64876;BME280;51369;49.862;9.908;2022-09-30T12:37:20;97893.88;;;18.92;53.92
64876;BME280;51369;49.862;9.908;2022-09-30T12:42:52;97902.19;;;19.01;50.69
64876;BME280;51369;49.862;9.908;2022-09-30T12:45:58;97897.84;;;18.99;50.82
64876;BME280;51369;49.862;9.908;2022-09-30T12:48:26;97894.25;;;18.98;49.62
64876;BME280;51369;49.862;9.908;2022-09-30T12:50:56;97896.09;;;18.98;49.38
64876;BME280;51369;49.862;9.908;2022-09-30T12:53:34;97890.41;;;18.90;48.81
64876;BME280;51369;49.862;9.908;2022-09-30T12:56:13;97902.09;;;18.92;51.45
64876;BME280;51369;49.862;9.908;2022-09-30T12:58:49;97892.38;;;18.99;53.03
64876;BME280;51369;49.862;9.908;2022-09-30T13:01:21;97887.44;;;19.13;53.59
64876;BME280;51369;49.862;9.908;2022-09-30T13:06:27;97886.19;;;19.38;51.20
64876;BME280;51369;49.862;9.908;2022-09-30T13:11:44;97888.47;;;19.33;49.16
64876;BME280;51369;49.862;9.908;2022-09-30T13:14:33;97887.38;;;19.25;48.90
64876;BME280;51369;49.862;9.908;2022-09-30T13:19:50;97891.66;;;19.17;49.29
64876;BME280;51369;49.862;9.908;2022-09-30T13:27:47;97907.13;;;18.64;52.91
64876;BME280;51369;49.862;9.908;2022-09-30T13:32:43;97907.13;;;18.42;54.55
64876;BME280;51369;49.862;9.908;2022-09-30T13:35:32;97907.25;;;18.40;52.86
64876;BME280;51369;49.862;9.908;2022-09-30T13:46:06;97900.13;;;18.82;51.17
64876;BME280;51369;49.862;9.908;2022-09-30T13:48:37;97897.25;;;18.84;50.98
64876;BME280;51369;49.862;9.908;2022-09-30T13:51:11;97892.78;;;18.83;49.87
64876;BME280;51369;49.862;9.908;2022-09-30T13:53:43;97895.66;;;18.81;50.46
64876;BME280;51369;49.862;9.908;2022-09-30T13:56:20;97901.38;;;18.78;50.09
64876;BME280;51369;49.862;9.908;2022-09-30T14:02:42;97894.38;;;18.97;52.92
64876;BME280;51369;49.862;9.908;2022-09-30T14:04:43;97902.84;;;19.14;52.21
64876;BME280;51369;49.862;9.908;2022-09-30T14:22:02;97890.72;;;19.60;50.90
64876;BME280;51369;49.862;9.908;2022-09-30T14:24:31;97887.59;;;19.65;51.46
64876;BME280;51369;49.862;9.908;2022-09-30T14:35:08;97883.56;;;19.90;51.58
64876;BME280;51369;49.862;9.908;2022-09-30T14:37:55;97884.16;;;19.93;50.86
64876;BME280;51369;49.862;9.908;2022-09-30T14:40:28;97887.34;;;19.98;51.08
64876;BME280;51369;49.862;9.908;2022-09-30T14:42:57;97876.13;;;20.01;51.11
64876;BME280;51369;49.862;9.908;2022-09-30T14:45:30;97877.84;;;20.02;50.10
64876;BME280;51369;49.862;9.908;2022-09-30T14:48:01;97883.47;;;20.01;50.31
64876;BME280;51369;49.862;9.908;2022-09-30T14:50:35;97880.88;;;19.99;49.52
64876;BME280;51369;49.862;9.908;2022-09-30T14:53:02;97885.94;;;20.04;50.35
64876;BME280;51369;49.862;9.908;2022-09-30T14:55:33;97883.78;;;20.07;49.64
64876;BME280;51369;49.862;9.908;2022-09-30T15:00:45;97884.53;;;20.09;50.35
64876;BME280;51369;49.862;9.908;2022-09-30T15:03:12;97880.19;;;20.07;50.56
64876;BME280;51369;49.862;9.908;2022-09-30T15:05:39;97885.88;;;19.94;50.02
64876;BME280;51369;49.862;9.908;2022-09-30T15:08:10;97881.56;;;19.71;50.56
64876;BME280;51369;49.862;9.908;2022-09-30T15:10:36;97881.44;;;19.52;51.32
64876;BME280;51369;49.862;9.908;2022-09-30T15:13:01;97882.25;;;19.31;51.63
64876;BME280;51369;49.862;9.908;2022-09-30T15:15:34;97889.31;;;19.13;52.87
64876;BME280;51369;49.862;9.908;2022-09-30T15:18:40;97879.94;;;18.95;52.91
64876;BME280;51369;49.862;9.908;2022-09-30T15:21:10;97883.81;;;18.92;54.34
64876;BME280;51369;49.862;9.908;2022-09-30T15:23:39;97888.53;;;18.90;54.31
64876;BME280;51369;49.862;9.908;2022-09-30T15:26:06;97877.84;;;18.87;53.59
64876;BME280;51369;49.862;9.908;2022-09-30T15:28:35;97876.25;;;18.84;53.19
64876;BME280;51369;49.862;9.908;2022-09-30T15:31:01;97879.38;;;18.80;53.16
64876;BME280;51369;49.862;9.908;2022-09-30T15:33:28;97873.53;;;18.73;52.97
64876;BME280;51369;49.862;9.908;2022-09-30T15:36:22;97881.00;;;18.60;53.17
64876;BME280;51369;49.862;9.908;2022-09-30T15:38:49;97870.81;;;18.51;53.07
64876;BME280;51369;49.862;9.908;2022-09-30T15:41:15;97878.31;;;18.38;52.18
64876;BME280;51369;49.862;9.908;2022-09-30T15:43:47;97875.97;;;18.22;52.64
64876;BME280;51369;49.862;9.908;2022-09-30T15:49:01;97876.56;;;17.92;53.17
64876;BME280;51369;49.862;9.908;2022-09-30T15:53:58;97886.06;;;17.64;53.98
64876;BME280;51369;49.862;9.908;2022-09-30T15:58:55;97884.50;;;17.38;54.54
64876;BME280;51369;49.862;9.908;2022-09-30T16:01:25;97892.56;;;17.28;56.05
64876;BME280;51369;49.862;9.908;2022-09-30T16:06:51;97898.06;;;17.04;55.47
64876;BME280;51369;49.862;9.908;2022-09-30T16:12:05;97893.38;;;16.82;56.35
64876;BME280;51369;49.862;9.908;2022-09-30T16:14:43;97896.91;;;16.72;57.64
64876;BME280;51369;49.862;9.908;2022-09-30T16:17:34;97901.25;;;16.62;57.66
64876;BME280;51369;49.862;9.908;2022-09-30T16:20:05;97912.63;;;16.55;57.18
64876;BME280;51369;49.862;9.908;2022-09-30T16:27:35;97910.06;;;16.28;57.91
64876;BME280;51369;49.862;9.908;2022-09-30T16:30:01;97902.47;;;16.21;59.19
64876;BME280;51369;49.862;9.908;2022-09-30T16:32:29;97898.56;;;16.12;59.25
64876;BME280;51369;49.862;9.908;2022-09-30T16:34:57;97903.69;;;16.04;58.91